Huvudsida
METAR-TAF:

METAR-TAF

Flygplatser :

Tolmatjovos flygplats

Novosibirsk, Ryssland

latitud: 55-01N, longitud: 082-38E, höjd: 111 m

Aktuellt väderrapport

Denna rapport gjordes för 10 minuter sedan, klockan 00:30 UTC
Stilla vind
Temperatur -23°C
Fuktighet 76%
Tryck 1032 hPa
Sikt: 5000 m
fuktdis

METAR: UNNT 100030Z 00000MPS 5000 BR NSC M23/M26 Q1032 R25/810160 R16/810160 NOSIG RMK QFE764/1019

Tid: 07:40 (00:40 UTC)

Väderprognos

Denna rapport gjordes för 1 timme och 40 minuter sedan, klockan 23:00 UTC
Prognos gäller från 10 kl. 00 UTC till 10 kl. 24 UTC
Vind 6 kt från syd/sydost
Sikt: 5000 m
rök
Temporärt
från 10 kl. 00 UTC till 10 kl. 04 UTC
Sikt: 0600 m
Spridda moln på en höjd av 200 ft
Brutna moln på en höjd av 1100 ft
underkyld dimma
Temporärt
från 10 kl. 11 UTC till 10 kl. 24 UTC
Sikt: 3100 m
Spridda moln på en höjd av 1100 ft
fuktdis

TAF: UNNT 092300Z 1000/1024 16003MPS 5000 FU NSC TEMPO 1000/1004 0600 FZFG SCT002 BKN011 TEMPO 1011/1024 3100 BR SCT011

Aktuella väderrapporter och prognoser från 4000 flygplatser (METAR- och TAF-rapporter).

De tillgängliga stationerna syns som gula och röda prickar på kartan.

För musen över prickarna för att se namnen på stationerna.

Klicka sedan för att få väderrapporter och prognoser.

För att ändra kartan: Klicka på de gröna knapparna med ett svart kors på för att zooma in; den gröna knappen med ett streck på för att zooma ut; eller på de gröna pilarna för angränsande kartor.


METAR-TAF: